createdAt,value
2023-04-19T00:01:28.505Z,10.53
2023-04-19T00:03:56.111Z,10.43
2023-04-19T00:06:23.417Z,10.38
2023-04-19T00:08:50.091Z,10.37
2023-04-19T00:11:16.663Z,10.42
2023-04-19T00:13:43.409Z,10.34
2023-04-19T00:16:10.002Z,10.28
2023-04-19T00:18:38.680Z,10.30
2023-04-19T00:21:05.659Z,10.25
2023-04-19T00:23:32.479Z,10.21
2023-04-19T00:25:59.115Z,10.36
2023-04-19T00:28:26.189Z,10.30
2023-04-19T00:30:52.895Z,10.34
2023-04-19T00:33:19.637Z,10.31
2023-04-19T00:35:46.228Z,10.37
2023-04-19T00:38:13.454Z,10.31
2023-04-19T00:40:40.133Z,10.24
2023-04-19T00:43:06.754Z,10.18
2023-04-19T00:45:35.819Z,10.26
2023-04-19T00:48:02.659Z,10.22
2023-04-19T00:50:29.689Z,10.17
2023-04-19T00:52:57.110Z,10.22
2023-04-19T00:55:25.285Z,10.14
2023-04-19T00:57:52.254Z,10.06
2023-04-19T01:00:20.055Z,9.99
2023-04-19T01:02:48.007Z,10.02
2023-04-19T01:05:15.308Z,10.02
2023-04-19T01:07:43.194Z,10.01
2023-04-19T01:10:11.201Z,9.90
2023-04-19T01:12:37.876Z,9.84
2023-04-19T01:15:04.803Z,9.76
2023-04-19T01:17:33.060Z,9.69
2023-04-19T01:20:06.650Z,9.68
2023-04-19T01:22:37.609Z,9.57
2023-04-19T01:25:05.683Z,9.55
2023-04-19T01:27:35.695Z,9.47
2023-04-19T01:30:02.329Z,9.49
2023-04-19T01:32:29.114Z,9.36
2023-04-19T01:34:56.149Z,9.32
2023-04-19T01:37:22.859Z,9.32
2023-04-19T01:39:49.603Z,9.16
2023-04-19T01:42:16.273Z,9.10
2023-04-19T01:44:42.928Z,9.02
2023-04-19T01:47:09.849Z,8.94
2023-04-19T01:49:36.645Z,9.06
2023-04-19T01:52:03.339Z,9.01
2023-04-19T01:54:29.937Z,9.02
2023-04-19T01:56:57.122Z,8.97
2023-04-19T01:59:23.820Z,8.87
2023-04-19T02:01:51.068Z,8.82
2023-04-19T02:04:20.612Z,8.73
2023-04-19T02:06:47.398Z,8.68
2023-04-19T02:09:14.498Z,8.69
2023-04-19T02:11:42.253Z,8.68
2023-04-19T02:14:08.857Z,8.63
2023-04-19T02:16:36.206Z,8.52
2023-04-19T02:19:03.340Z,8.40
2023-04-19T02:21:29.990Z,8.50
2023-04-19T02:23:56.559Z,8.47
2023-04-19T02:26:24.608Z,8.53
2023-04-19T02:28:52.638Z,8.59
2023-04-19T02:31:19.325Z,8.57
2023-04-19T02:33:46.785Z,8.60
2023-04-19T02:36:13.483Z,8.68
2023-04-19T02:38:40.090Z,8.73
2023-04-19T02:41:06.655Z,8.52
2023-04-19T02:43:33.235Z,8.65
2023-04-19T02:45:59.853Z,8.73
2023-04-19T02:48:26.878Z,8.80
2023-04-19T02:50:53.577Z,8.87
2023-04-19T02:53:20.537Z,9.15
2023-04-19T02:55:48.347Z,9.11
2023-04-19T02:58:18.702Z,9.11
2023-04-19T03:00:56.909Z,9.29
2023-04-19T03:03:23.970Z,9.37
2023-04-19T03:05:50.674Z,9.42
2023-04-19T03:08:17.551Z,9.38
2023-04-19T03:10:45.240Z,9.42
2023-04-19T03:13:11.823Z,9.70
2023-04-19T03:15:38.509Z,9.63
2023-04-19T03:18:05.389Z,9.74
2023-04-19T03:20:33.180Z,9.75
2023-04-19T03:22:59.783Z,9.78
2023-04-19T03:25:27.138Z,9.86
2023-04-19T03:28:02.514Z,9.78
2023-04-19T03:30:49.208Z,9.85
2023-04-19T03:33:15.995Z,9.89
2023-04-19T03:35:43.897Z,9.88
2023-04-19T03:38:11.730Z,10.00
2023-04-19T03:40:38.786Z,10.05
2023-04-19T03:43:06.568Z,10.05
2023-04-19T03:45:34.448Z,10.04
2023-04-19T03:48:02.907Z,10.10
2023-04-19T03:50:30.308Z,10.13
2023-04-19T03:52:57.203Z,10.10
2023-04-19T03:55:23.864Z,10.15
2023-04-19T03:57:50.608Z,10.13
2023-04-19T04:00:23.144Z,10.26
2023-04-19T04:02:56.647Z,10.19
2023-04-19T04:05:23.860Z,10.27
2023-04-19T04:07:50.585Z,10.26
2023-04-19T04:10:18.396Z,10.19
2023-04-19T04:12:46.147Z,10.18
2023-04-19T04:15:18.861Z,10.11
2023-04-19T04:17:50.592Z,10.21
2023-04-19T04:20:19.768Z,10.19
2023-04-19T04:22:47.391Z,10.19
2023-04-19T04:25:16.619Z,10.27
2023-04-19T04:27:44.221Z,10.24
2023-04-19T04:30:15.241Z,10.32
2023-04-19T04:32:42.003Z,10.31
2023-04-19T04:35:09.816Z,10.31
2023-04-19T04:37:49.384Z,10.34
2023-04-19T04:40:16.326Z,10.40
2023-04-19T04:42:42.971Z,10.49
2023-04-19T04:45:10.807Z,10.48
2023-04-19T04:47:38.601Z,10.45
2023-04-19T04:50:07.451Z,10.46
2023-04-19T04:52:34.200Z,10.48
2023-04-19T04:55:09.138Z,10.51
2023-04-19T04:57:40.081Z,10.50
2023-04-19T05:00:11.337Z,10.54
2023-04-19T05:02:45.378Z,10.53
2023-04-19T05:05:12.300Z,10.66
2023-04-19T05:07:39.080Z,10.73
2023-04-19T05:10:07.583Z,10.63
2023-04-19T05:12:42.913Z,10.70
2023-04-19T05:15:11.888Z,10.67
2023-04-19T05:17:42.977Z,10.73
2023-04-19T05:20:10.192Z,10.76
2023-04-19T05:22:37.611Z,10.72
2023-04-19T05:25:07.309Z,10.81
2023-04-19T05:27:33.975Z,10.81
2023-04-19T05:30:00.922Z,10.92
2023-04-19T05:32:29.837Z,10.89
2023-04-19T05:34:58.531Z,10.98
2023-04-19T05:37:25.262Z,10.94
2023-04-19T05:39:51.941Z,10.96
2023-04-19T05:42:18.987Z,10.85
2023-04-19T05:44:45.687Z,11.00
2023-04-19T05:47:12.962Z,11.01
2023-04-19T05:50:18.480Z,11.06
2023-04-19T05:52:52.146Z,10.98
2023-04-19T05:55:18.885Z,10.97
2023-04-19T05:57:46.074Z,10.89
2023-04-19T06:00:13.421Z,10.93
2023-04-19T06:02:51.175Z,10.90
2023-04-19T06:05:18.161Z,11.00
2023-04-19T06:07:54.626Z,10.97
2023-04-19T06:10:31.289Z,11.00
2023-04-19T06:13:04.201Z,11.00
2023-04-19T06:15:31.014Z,11.01
2023-04-19T06:17:59.783Z,11.09
2023-04-19T06:20:26.572Z,11.16
2023-04-19T06:22:53.201Z,11.15
2023-04-19T06:25:19.922Z,11.16
2023-04-19T06:27:46.700Z,11.11
2023-04-19T06:30:13.649Z,11.25
2023-04-19T06:32:40.502Z,11.25
2023-04-19T06:35:07.662Z,11.31
2023-04-19T06:37:34.890Z,11.57
2023-04-19T06:40:01.715Z,11.76
2023-04-19T06:42:28.381Z,11.72
2023-04-19T06:44:57.195Z,11.78
2023-04-19T06:47:23.923Z,12.01
2023-04-19T06:49:50.536Z,12.29
2023-04-19T06:52:17.130Z,12.45
2023-04-19T06:54:50.829Z,12.52
2023-04-19T06:57:18.235Z,12.53
2023-04-19T06:59:45.043Z,12.50
2023-04-19T07:02:11.781Z,12.43
2023-04-19T07:04:38.658Z,12.22
2023-04-19T07:07:05.604Z,12.07
2023-04-19T07:09:32.239Z,12.01
2023-04-19T07:11:58.896Z,11.82
2023-04-19T07:14:26.069Z,11.54
2023-04-19T07:16:55.836Z,11.55
2023-04-19T07:19:23.002Z,11.27
2023-04-19T07:21:51.224Z,11.42
2023-04-19T07:24:18.357Z,11.32
2023-04-19T07:26:45.565Z,11.24
2023-04-19T07:29:15.113Z,11.28
2023-04-19T07:31:43.034Z,11.09
2023-04-19T07:34:10.536Z,11.00
2023-04-19T07:36:37.892Z,11.03
2023-04-19T07:39:04.954Z,10.95
2023-04-19T07:41:35.931Z,10.94
2023-04-19T07:44:03.117Z,10.93
2023-04-19T07:46:30.159Z,10.79
2023-04-19T07:48:56.778Z,10.81
2023-04-19T07:51:24.765Z,10.89
2023-04-19T07:53:51.375Z,10.95
2023-04-19T07:56:19.673Z,10.91
2023-04-19T07:58:50.912Z,10.85
2023-04-19T08:01:23.593Z,10.85
2023-04-19T08:03:50.423Z,10.95
2023-04-19T08:06:18.083Z,11.01
2023-04-19T08:08:44.670Z,10.89
2023-04-19T08:11:11.370Z,10.98
2023-04-19T08:13:39.965Z,11.16
2023-04-19T08:18:36.737Z,11.28
2023-04-19T08:21:03.931Z,11.41
2023-04-19T08:23:38.022Z,11.37
2023-04-19T08:26:08.292Z,11.45
2023-04-19T08:28:34.883Z,11.61
2023-04-19T08:31:01.478Z,11.72
2023-04-19T08:33:28.926Z,11.70
2023-04-19T08:35:55.561Z,11.81
2023-04-19T08:38:22.129Z,11.89
2023-04-19T08:40:52.648Z,12.03
2023-04-19T08:43:19.758Z,12.05
2023-04-19T08:45:50.337Z,12.39
2023-04-19T08:48:18.323Z,12.59
2023-04-19T08:51:03.581Z,12.72
2023-04-19T08:53:33.714Z,12.52
2023-04-19T09:01:05.277Z,11.83
2023-04-19T09:03:40.782Z,11.92
2023-04-19T09:06:14.319Z,11.71
2023-04-19T09:08:41.927Z,11.82
2023-04-19T09:11:09.427Z,11.92
2023-04-19T09:13:40.599Z,12.17
2023-04-19T09:16:10.454Z,12.41
2023-04-19T09:19:02.608Z,12.70
2023-04-19T09:21:35.815Z,12.77
2023-04-19T09:24:03.840Z,12.84
2023-04-19T09:26:31.985Z,12.90
2023-04-19T09:29:02.024Z,13.01
2023-04-19T09:31:50.191Z,13.09
2023-04-19T09:34:18.800Z,13.40
2023-04-19T09:36:46.962Z,13.41
2023-04-19T09:39:14.625Z,13.71
2023-04-19T09:41:54.807Z,13.93
2023-04-19T09:46:53.728Z,13.64
2023-04-19T09:49:41.640Z,13.39
2023-04-19T09:52:14.891Z,12.98
2023-04-19T09:54:42.076Z,12.61
2023-04-19T09:57:08.818Z,12.89
2023-04-19T09:59:35.435Z,12.87
2023-04-19T10:02:03.142Z,12.78
2023-04-19T10:04:47.949Z,12.88
2023-04-19T10:14:48.048Z,13.55
2023-04-19T10:17:15.361Z,13.33
2023-04-19T10:19:43.449Z,13.03
2023-04-19T10:22:10.952Z,12.72
2023-04-19T10:24:37.787Z,12.88
2023-04-19T10:27:12.060Z,13.05
2023-04-19T10:29:58.391Z,12.84
2023-04-19T10:32:39.114Z,12.75
2023-04-19T10:35:23.824Z,12.51
2023-04-19T10:38:08.702Z,12.61
2023-04-19T10:40:57.018Z,12.38
2023-04-19T10:43:24.998Z,12.08
2023-04-19T10:45:52.110Z,12.70
2023-04-19T10:48:30.499Z,12.28
2023-04-19T10:51:00.807Z,13.08
2023-04-19T10:53:53.592Z,13.22
2023-04-19T10:56:43.677Z,13.28
2023-04-19T10:59:21.383Z,13.39
2023-04-19T11:01:54.197Z,13.84
2023-04-19T11:04:30.045Z,14.91
2023-04-19T11:07:04.954Z,15.62
2023-04-19T11:09:32.499Z,16.11
2023-04-19T11:12:08.502Z,16.48
2023-04-19T11:14:46.270Z,16.80
2023-04-19T11:17:18.245Z,16.22
2023-04-19T11:19:55.670Z,15.51
2023-04-19T11:22:27.080Z,16.09
2023-04-19T11:24:53.716Z,16.99
2023-04-19T11:27:21.330Z,17.19
2023-04-19T11:29:48.209Z,16.94
2023-04-19T11:32:14.828Z,16.24
2023-04-19T11:34:41.479Z,16.28
2023-04-19T11:37:08.749Z,15.84
2023-04-19T11:39:45.551Z,15.58
2023-04-19T11:42:19.780Z,14.83
2023-04-19T11:44:51.707Z,15.68
2023-04-19T11:47:19.989Z,15.15
2023-04-19T11:49:47.697Z,15.67
2023-04-19T11:52:20.861Z,15.24
2023-04-19T11:54:47.872Z,16.00
2023-04-19T11:57:14.747Z,15.94
2023-04-19T12:00:10.094Z,16.22
2023-04-19T12:02:42.893Z,15.44
2023-04-19T12:05:11.248Z,15.17
2023-04-19T12:07:39.069Z,14.66
2023-04-19T12:10:11.808Z,14.54
2023-04-19T12:12:39.300Z,14.25
2023-04-19T12:15:07.810Z,14.18
2023-04-19T12:17:35.378Z,14.35
2023-04-19T12:20:05.515Z,14.62
2023-04-19T12:22:32.102Z,14.96
2023-04-19T12:24:59.153Z,15.20
2023-04-19T12:27:25.974Z,15.51
2023-04-19T12:29:52.590Z,15.55
2023-04-19T12:32:19.743Z,16.16
2023-04-19T12:34:46.375Z,16.08
2023-04-19T12:37:12.971Z,16.60
2023-04-19T12:39:39.545Z,16.42
2023-04-19T12:42:06.343Z,16.29
2023-04-19T12:44:32.979Z,16.40
2023-04-19T12:46:59.585Z,16.26
2023-04-19T12:49:26.353Z,15.63
2023-04-19T12:51:54.177Z,15.61
2023-04-19T12:54:22.474Z,15.43
2023-04-19T12:56:49.053Z,15.24
2023-04-19T12:59:16.080Z,14.97
2023-04-19T13:01:44.153Z,14.58
2023-04-19T13:04:12.104Z,14.15
2023-04-19T13:06:39.759Z,13.71
2023-04-19T13:09:14.182Z,13.20
2023-04-19T13:11:41.380Z,13.08
2023-04-19T13:14:08.086Z,12.80
2023-04-19T13:16:34.754Z,12.10
2023-04-19T13:19:01.418Z,12.25
2023-04-19T13:21:28.142Z,12.19
2023-04-19T13:23:54.898Z,12.13
2023-04-19T13:26:21.705Z,12.13
2023-04-19T13:28:48.513Z,12.09
2023-04-19T13:31:15.433Z,12.14
2023-04-19T13:33:42.195Z,12.25
2023-04-19T13:36:08.989Z,12.25
2023-04-19T13:38:35.684Z,12.34
2023-04-19T13:41:03.579Z,12.53
2023-04-19T13:43:31.416Z,12.74
2023-04-19T13:45:58.077Z,13.00
2023-04-19T13:48:28.902Z,13.34
2023-04-19T13:50:56.469Z,13.67
2023-04-19T13:53:23.687Z,13.95
2023-04-19T13:55:50.974Z,14.45
2023-04-19T13:58:19.018Z,14.82
2023-04-19T14:00:48.657Z,15.07
2023-04-19T14:03:15.486Z,15.10
2023-04-19T14:05:42.392Z,15.63
2023-04-19T14:08:10.643Z,16.05
2023-04-19T14:10:38.156Z,15.99
2023-04-19T14:13:05.538Z,15.44
2023-04-19T14:15:34.615Z,15.40
2023-04-19T14:18:02.063Z,15.12
2023-04-19T14:20:29.021Z,15.05
2023-04-19T14:22:58.934Z,14.84
2023-04-19T14:25:26.198Z,14.45
2023-04-19T14:27:52.902Z,14.40
2023-04-19T14:30:20.828Z,14.40
2023-04-19T14:32:47.926Z,14.81
2023-04-19T14:35:14.661Z,14.96
2023-04-19T14:37:41.258Z,15.21
2023-04-19T14:40:08.676Z,15.42
2023-04-19T14:42:35.413Z,15.30
2023-04-19T14:45:02.131Z,15.01
2023-04-19T14:47:29.036Z,14.60
2023-04-19T14:49:55.811Z,14.39
2023-04-19T14:52:23.579Z,14.37
2023-04-19T14:54:50.233Z,14.29
2023-04-19T14:57:17.170Z,13.93
2023-04-19T14:59:44.332Z,13.95
2023-04-19T15:02:13.263Z,13.96
2023-04-19T15:04:41.244Z,13.69
2023-04-19T15:07:08.372Z,13.49
2023-04-19T15:09:34.960Z,13.65
2023-04-19T15:12:01.845Z,13.70
2023-04-19T15:14:28.534Z,13.57
2023-04-19T15:16:55.871Z,13.70
2023-04-19T15:19:23.619Z,13.56
2023-04-19T15:21:50.307Z,13.78
2023-04-19T15:24:16.901Z,13.93
2023-04-19T15:26:44.510Z,13.71
2023-04-19T15:29:12.589Z,13.87
2023-04-19T15:31:39.867Z,13.92
2023-04-19T15:34:07.090Z,13.99
2023-04-19T15:36:33.748Z,13.49
2023-04-19T15:39:01.709Z,13.51
2023-04-19T15:41:28.358Z,13.74
2023-04-19T15:43:55.990Z,13.88
2023-04-19T15:46:22.820Z,13.84
2023-04-19T15:48:50.697Z,13.59
2023-04-19T15:51:17.330Z,13.63
2023-04-19T15:53:43.952Z,13.69
2023-04-19T15:56:10.778Z,13.32
2023-04-19T15:58:38.877Z,13.31
2023-04-19T16:01:18.375Z,13.18
2023-04-19T16:03:47.062Z,12.90
2023-04-19T16:06:13.916Z,12.87
2023-04-19T16:08:40.571Z,12.87
2023-04-19T16:11:07.229Z,12.90
2023-04-19T16:13:33.878Z,12.98
2023-04-19T16:16:01.605Z,13.08
2023-04-19T16:18:28.862Z,12.96
2023-04-19T16:20:55.904Z,13.12
2023-04-19T16:23:25.832Z,13.21
2023-04-19T16:25:53.434Z,13.21
2023-04-19T16:28:21.617Z,13.18
2023-04-19T16:30:48.635Z,12.89
2023-04-19T16:33:15.869Z,12.68
2023-04-19T16:35:42.725Z,12.51
2023-04-19T16:38:10.465Z,12.38
2023-04-19T16:40:37.557Z,12.29
2023-04-19T16:43:06.458Z,12.10
2023-04-19T16:45:33.762Z,12.12
2023-04-19T16:48:00.857Z,12.07
2023-04-19T16:50:27.908Z,12.03
2023-04-19T16:52:56.114Z,12.03
2023-04-19T16:55:23.194Z,11.72
2023-04-19T16:57:51.142Z,11.73
2023-04-19T17:00:18.107Z,11.40
2023-04-19T17:02:45.741Z,11.40
2023-04-19T17:05:13.881Z,11.21
2023-04-19T17:07:43.969Z,11.21
2023-04-19T17:10:13.225Z,11.08
2023-04-19T17:12:40.622Z,11.02
2023-04-19T17:15:07.531Z,10.97
2023-04-19T17:17:34.467Z,10.91
2023-04-19T17:20:10.136Z,10.80
2023-04-19T17:22:58.500Z,10.65
2023-04-19T17:25:57.312Z,10.70
2023-04-19T17:28:38.367Z,10.50
2023-04-19T17:34:02.734Z,10.33
2023-04-19T17:46:40.635Z,10.04
2023-04-19T17:49:09.291Z,10.10
2023-04-19T17:51:36.197Z,10.04
2023-04-19T17:54:04.489Z,10.13
2023-04-19T17:56:31.875Z,10.02
2023-04-19T17:59:00.928Z,9.94
2023-04-19T18:01:30.272Z,9.94
2023-04-19T18:03:57.985Z,9.96
2023-04-19T18:06:24.932Z,9.92
2023-04-19T18:08:51.686Z,9.97
2023-04-19T18:11:19.702Z,10.00
2023-04-19T18:13:46.554Z,9.86
2023-04-19T18:16:13.671Z,9.86
2023-04-19T18:18:40.416Z,9.86
2023-04-19T18:21:08.382Z,9.95
2023-04-19T18:23:36.528Z,9.84
2023-04-19T18:26:04.036Z,9.82
2023-04-19T18:28:30.782Z,9.77
2023-04-19T18:30:58.261Z,9.81
2023-04-19T18:33:24.903Z,9.80
2023-04-19T18:35:57.793Z,9.75
2023-04-19T18:38:24.618Z,9.84
2023-04-19T18:40:57.138Z,9.94
2023-04-19T18:43:24.633Z,9.78
2023-04-19T18:46:01.382Z,9.80
2023-04-19T18:48:29.537Z,9.89
2023-04-19T18:50:59.446Z,9.73
2023-04-19T18:53:28.614Z,9.70
2023-04-19T18:55:57.697Z,9.68
2023-04-19T18:58:26.061Z,9.53
2023-04-19T19:00:52.945Z,9.43
2023-04-19T19:03:52.739Z,9.43
2023-04-19T19:06:08.746Z,9.30
2023-04-19T19:08:36.601Z,9.30
2023-04-19T19:13:33.215Z,9.28
2023-04-19T19:16:00.005Z,9.25
2023-04-19T19:18:29.375Z,9.16
2023-04-19T19:21:03.113Z,9.16
2023-04-19T19:23:35.980Z,9.05
2023-04-19T19:26:06.488Z,9.11
2023-04-19T19:28:33.366Z,9.10
2023-04-19T19:31:00.418Z,8.99
2023-04-19T19:33:28.889Z,8.97
2023-04-19T19:35:56.031Z,8.92
2023-04-19T19:38:22.906Z,8.93
2023-04-19T19:43:19.540Z,8.88
2023-04-19T19:45:46.490Z,8.71
2023-04-19T19:48:13.391Z,8.62
2023-04-19T19:53:10.687Z,8.64
2023-04-19T19:55:37.705Z,8.57
2023-04-19T20:00:46.253Z,8.59
2023-04-19T20:03:14.334Z,8.68
2023-04-19T20:05:41.494Z,8.60
2023-04-19T20:08:11.653Z,8.57
2023-04-19T20:10:42.303Z,8.52
2023-04-19T20:13:09.316Z,8.49
2023-04-19T20:15:37.068Z,8.48
2023-04-19T20:18:04.389Z,8.44
2023-04-19T20:20:31.309Z,8.43
2023-04-19T20:22:57.938Z,8.27
2023-04-19T20:25:24.879Z,8.35
2023-04-19T20:27:51.748Z,8.29
2023-04-19T20:30:18.545Z,8.20
2023-04-19T20:32:45.444Z,8.30
2023-04-19T20:35:12.632Z,8.32
2023-04-19T20:37:39.944Z,8.33
2023-04-19T20:40:11.042Z,8.29
2023-04-19T20:42:38.136Z,8.28
2023-04-19T20:45:06.618Z,8.29
2023-04-19T20:47:33.923Z,8.26
2023-04-19T20:50:01.682Z,8.35
2023-04-19T20:52:28.823Z,8.20
2023-04-19T20:54:56.904Z,8.11
2023-04-19T20:57:23.593Z,8.13
2023-04-19T20:59:51.070Z,8.14
2023-04-19T21:02:17.932Z,8.13
2023-04-19T21:04:44.781Z,8.06
2023-04-19T21:07:11.512Z,7.94
2023-04-19T21:09:38.272Z,7.92
2023-04-19T21:12:05.075Z,7.97
2023-04-19T21:14:39.141Z,7.96
2023-04-19T21:17:17.510Z,7.89
2023-04-19T21:19:51.150Z,7.86
2023-04-19T21:22:19.768Z,7.93
2023-04-19T21:24:49.499Z,7.89
2023-04-19T21:27:17.414Z,7.81
2023-04-19T21:29:44.488Z,7.83
2023-04-19T21:32:11.333Z,7.84
2023-04-19T21:34:38.658Z,7.80
2023-04-19T21:37:09.740Z,7.82
2023-04-19T21:39:39.794Z,7.78
2023-04-19T21:42:33.855Z,7.89
2023-04-19T21:45:02.675Z,7.95
2023-04-19T21:47:32.249Z,7.98
2023-04-19T21:50:00.443Z,7.91
2023-04-19T21:52:27.273Z,7.83
2023-04-19T21:54:54.030Z,7.91
2023-04-19T21:57:24.754Z,7.81
2023-04-19T21:59:51.632Z,7.87
2023-04-19T22:02:18.739Z,7.85
2023-04-19T22:04:45.817Z,7.77
2023-04-19T22:07:12.931Z,7.78
2023-04-19T22:09:39.758Z,7.74
2023-04-19T22:12:06.844Z,7.77
2023-04-19T22:14:38.786Z,7.77
2023-04-19T22:17:07.183Z,7.79
2023-04-19T22:19:34.968Z,7.77
2023-04-19T22:22:02.584Z,7.78
2023-04-19T22:24:39.178Z,7.71
2023-04-19T22:27:18.993Z,7.78
2023-04-19T22:29:46.172Z,7.78
2023-04-19T22:32:13.372Z,7.79
2023-04-19T22:34:41.542Z,7.79
2023-04-19T22:37:11.501Z,7.78
2023-04-19T22:39:38.716Z,7.82
2023-04-19T22:42:06.937Z,7.84
2023-04-19T22:47:18.632Z,7.82
2023-04-19T22:49:45.805Z,7.77
2023-04-19T22:52:15.769Z,7.75
2023-04-19T22:54:45.976Z,7.80
2023-04-19T22:57:19.588Z,7.80
2023-04-19T22:59:47.044Z,7.75
2023-04-19T23:02:15.115Z,7.83
2023-04-19T23:04:44.455Z,7.87
2023-04-19T23:07:11.934Z,7.73
2023-04-19T23:09:41.710Z,7.73
2023-04-19T23:12:09.023Z,7.62
2023-04-19T23:14:35.817Z,7.49
2023-04-19T23:17:03.017Z,7.43
2023-04-19T23:19:30.575Z,7.45
2023-04-19T23:21:57.661Z,7.42
2023-04-19T23:24:24.896Z,7.50
2023-04-19T23:26:53.154Z,7.56
2023-04-19T23:29:19.959Z,7.60
2023-04-19T23:31:46.926Z,7.46
2023-04-19T23:34:14.223Z,7.45
2023-04-19T23:36:41.024Z,7.42
2023-04-19T23:39:07.697Z,7.46
2023-04-19T23:41:34.532Z,7.41
2023-04-19T23:44:01.483Z,7.48
2023-04-19T23:46:28.313Z,7.48
2023-04-19T23:48:56.757Z,7.42
2023-04-19T23:51:24.082Z,7.45
2023-04-19T23:53:51.166Z,7.42
2023-04-19T23:56:19.826Z,7.52
2023-04-19T23:58:46.729Z,7.52
